createdAt,value
2023-04-18T00:02:29.003Z,3.75
2023-04-18T00:07:25.772Z,3.50
2023-04-18T00:12:22.288Z,3.75
2023-04-18T00:17:18.874Z,3.67
2023-04-18T00:22:16.881Z,3.25
2023-04-18T00:27:13.209Z,3.10
2023-04-18T00:32:09.614Z,3.65
2023-04-18T00:37:06.729Z,3.88
2023-04-18T00:42:04.067Z,3.47
2023-04-18T00:47:00.641Z,3.63
2023-04-18T00:51:57.162Z,3.28
2023-04-18T00:56:53.653Z,3.65
2023-04-18T01:01:50.053Z,3.83
2023-04-18T01:06:46.984Z,4.15
2023-04-18T01:11:43.344Z,3.72
2023-04-18T01:16:39.951Z,3.42
2023-04-18T01:21:37.436Z,3.90
2023-04-18T01:26:34.005Z,3.50
2023-04-18T01:31:30.568Z,3.55
2023-04-18T01:36:27.749Z,3.85
2023-04-18T01:41:24.260Z,3.55
2023-04-18T01:46:20.701Z,3.85
2023-04-18T01:51:17.053Z,4.10
2023-04-18T01:56:13.538Z,3.65
2023-04-18T02:01:10.014Z,4.60
2023-04-18T02:06:06.905Z,4.63
2023-04-18T02:11:05.022Z,4.30
2023-04-18T02:16:01.395Z,4.47
2023-04-18T02:20:57.807Z,4.15
2023-04-18T02:25:54.527Z,4.95
2023-04-18T02:30:51.039Z,4.78
2023-04-18T02:35:47.573Z,5.13
2023-04-18T02:40:44.048Z,5.93
2023-04-18T02:45:40.492Z,4.97
2023-04-18T02:50:36.970Z,5.85
2023-04-18T02:55:33.662Z,5.57
2023-04-18T03:00:30.241Z,6.47
2023-04-18T03:05:26.635Z,6.25
2023-04-18T03:10:23.072Z,5.95
2023-04-18T03:15:19.507Z,6.10
2023-04-18T03:20:16.103Z,6.95
2023-04-18T03:25:12.528Z,5.68
2023-04-18T03:30:09.996Z,6.00
2023-04-18T03:35:06.568Z,5.68
2023-04-18T03:40:05.231Z,6.63
2023-04-18T03:45:01.968Z,6.68
2023-04-18T03:49:58.484Z,6.40
2023-04-18T03:54:55.048Z,6.70
2023-04-18T03:59:51.604Z,6.88
2023-04-18T04:04:48.476Z,7.05
2023-04-18T04:09:44.841Z,8.60
2023-04-18T04:14:41.235Z,8.82
2023-04-18T04:19:37.570Z,9.00
2023-04-18T04:24:33.956Z,9.25
2023-04-18T04:29:30.483Z,8.93
2023-04-18T04:34:26.844Z,8.23
2023-04-18T04:39:23.201Z,8.98
2023-04-18T04:44:21.925Z,9.38
2023-04-18T04:54:14.955Z,10.02
2023-04-18T04:59:11.424Z,8.95
2023-04-18T05:04:07.875Z,8.15
2023-04-18T05:09:04.258Z,8.65
2023-04-18T05:14:00.627Z,8.50
2023-04-18T05:18:57.002Z,8.52
2023-04-18T05:23:53.383Z,8.70
2023-04-18T05:28:49.732Z,7.47
2023-04-18T05:33:46.192Z,8.45
2023-04-18T05:38:42.520Z,8.55
2023-04-18T05:43:39.112Z,8.95
2023-04-18T05:48:35.519Z,10.77
2023-04-18T05:53:31.855Z,9.85
2023-04-18T05:58:29.148Z,10.60
2023-04-18T06:03:25.814Z,11.25
2023-04-18T06:08:22.388Z,10.13
2023-04-18T06:13:18.737Z,10.85
2023-04-18T06:18:15.292Z,10.32
2023-04-18T06:23:11.686Z,10.35
2023-04-18T06:28:08.221Z,10.60
2023-04-18T06:33:04.694Z,10.80
2023-04-18T06:38:01.200Z,11.13
2023-04-18T06:42:57.581Z,10.80
2023-04-18T06:47:54.073Z,10.90
2023-04-18T06:52:50.544Z,11.05
2023-04-18T06:57:47.083Z,11.27
2023-04-18T07:02:43.670Z,11.73
2023-04-18T07:07:40.293Z,11.60
2023-04-18T07:12:36.829Z,11.52
2023-04-18T07:17:33.217Z,11.10
2023-04-18T07:22:29.605Z,11.48
2023-04-18T07:27:26.705Z,9.98
2023-04-18T07:32:23.084Z,11.38
2023-04-18T07:37:21.238Z,12.02
2023-04-18T07:42:17.804Z,12.13
2023-04-18T07:47:14.140Z,12.10
2023-04-18T07:52:10.696Z,9.73
2023-04-18T07:57:07.070Z,11.05
2023-04-18T08:02:03.479Z,12.45
2023-04-18T08:06:59.875Z,10.82
2023-04-18T08:11:56.867Z,11.27
2023-04-18T08:16:53.310Z,12.07
2023-04-18T08:21:51.133Z,11.50
2023-04-18T08:26:47.543Z,11.30
2023-04-18T08:31:43.920Z,10.98
2023-04-18T08:36:40.457Z,10.88
2023-04-18T08:41:40.192Z,10.70
2023-04-18T08:46:37.169Z,10.45
2023-04-18T08:51:33.943Z,9.93
2023-04-18T08:56:31.151Z,10.55
2023-04-18T09:01:49.553Z,9.18
2023-04-18T09:11:49.523Z,10.68
2023-04-18T09:16:50.520Z,10.80
2023-04-18T09:21:58.075Z,10.65
2023-04-18T09:26:56.918Z,11.18
2023-04-18T09:31:59.749Z,11.70
2023-04-18T09:37:07.762Z,11.32
2023-04-18T09:42:06.101Z,11.05
2023-04-18T09:47:02.899Z,9.98
2023-04-18T09:52:01.547Z,10.68
2023-04-18T09:56:58.827Z,9.70
2023-04-18T10:01:57.753Z,10.65
2023-04-18T10:06:54.451Z,10.82
2023-04-18T10:11:50.935Z,10.63
2023-04-18T10:16:49.968Z,9.95
2023-04-18T10:21:54.642Z,10.13
2023-04-18T10:26:50.995Z,10.10
2023-04-18T10:31:47.985Z,10.00
2023-04-18T10:37:03.866Z,9.40
2023-04-18T10:42:00.212Z,9.60
2023-04-18T10:46:56.613Z,9.57
2023-04-18T10:51:55.634Z,8.63
2023-04-18T10:56:57.133Z,7.95
2023-04-18T11:01:57.077Z,8.45
2023-04-18T11:07:00.176Z,8.82
2023-04-18T11:12:14.753Z,8.35
2023-04-18T11:17:23.607Z,8.95
2023-04-18T11:22:20.176Z,9.40
2023-04-18T11:27:16.623Z,9.88
2023-04-18T11:32:13.069Z,9.38
2023-04-18T11:37:09.481Z,9.30
2023-04-18T11:42:05.901Z,8.32
2023-04-18T11:47:02.316Z,8.98
2023-04-18T11:51:59.879Z,8.98
2023-04-18T11:56:57.493Z,9.07
2023-04-18T12:02:14.799Z,8.90
2023-04-18T12:07:12.873Z,8.43
2023-04-18T12:12:09.295Z,8.05
2023-04-18T12:17:05.750Z,8.88
2023-04-18T12:22:05.069Z,8.10
2023-04-18T12:27:01.856Z,8.35
2023-04-18T12:31:58.301Z,8.40
2023-04-18T12:36:54.780Z,7.70
2023-04-18T12:41:51.387Z,8.05
2023-04-18T12:46:48.481Z,8.40
2023-04-18T12:51:45.180Z,7.65
2023-04-18T12:56:41.576Z,7.78
2023-04-18T13:01:38.184Z,6.70
2023-04-18T13:06:34.567Z,7.53
2023-04-18T13:11:30.911Z,6.40
2023-04-18T13:16:27.716Z,6.45
2023-04-18T13:21:25.840Z,6.38
2023-04-18T13:26:22.203Z,6.93
2023-04-18T13:31:18.685Z,5.75
2023-04-18T13:36:15.430Z,6.03
2023-04-18T13:41:13.554Z,6.28
2023-04-18T13:46:10.886Z,7.03
2023-04-18T13:51:07.412Z,6.25
2023-04-18T13:56:03.953Z,5.82
2023-04-18T14:01:00.819Z,6.53
2023-04-18T14:05:58.791Z,6.55
2023-04-18T14:10:55.334Z,5.82
2023-04-18T14:15:52.594Z,5.65
2023-04-18T14:20:49.148Z,5.70
2023-04-18T14:25:45.555Z,6.38
2023-04-18T14:30:41.867Z,5.75
2023-04-18T14:35:38.633Z,5.40
2023-04-18T14:40:34.951Z,5.68
2023-04-18T14:45:33.664Z,5.75
2023-04-18T14:50:31.206Z,5.70
2023-04-18T14:55:27.590Z,5.80
2023-04-18T15:00:24.011Z,4.40
2023-04-18T15:05:23.753Z,5.55
2023-04-18T15:10:22.336Z,5.50
2023-04-18T15:15:19.398Z,4.93
2023-04-18T15:20:16.144Z,4.80
2023-04-18T15:25:16.293Z,5.40
2023-04-18T15:30:13.870Z,6.00
2023-04-18T15:35:10.838Z,5.23
2023-04-18T15:40:10.294Z,4.25
2023-04-18T15:45:07.839Z,4.57
2023-04-18T15:50:04.873Z,4.73
2023-04-18T15:55:01.360Z,4.75
2023-04-18T15:59:59.314Z,4.95
2023-04-18T16:04:55.655Z,4.35
2023-04-18T16:09:52.047Z,5.80
2023-04-18T16:14:48.620Z,4.75
2023-04-18T16:19:44.967Z,4.45
2023-04-18T16:24:42.342Z,3.85
2023-04-18T16:29:38.758Z,4.80
2023-04-18T16:34:35.081Z,4.00
2023-04-18T16:39:31.470Z,4.10
2023-04-18T16:44:27.844Z,4.22
2023-04-18T16:49:24.312Z,4.43
2023-04-18T16:54:20.760Z,4.18
2023-04-18T16:59:17.656Z,4.85
2023-04-18T17:04:15.520Z,4.60
2023-04-18T17:19:06.576Z,4.47
2023-04-18T17:24:04.196Z,4.47
2023-04-18T17:29:02.428Z,4.93
2023-04-18T17:33:59.543Z,5.32
2023-04-18T17:38:56.300Z,5.30
2023-04-18T17:43:52.948Z,5.10
2023-04-18T17:48:49.333Z,5.30
2023-04-18T17:53:46.860Z,5.88
2023-04-18T17:58:43.264Z,6.23
2023-04-18T18:03:39.783Z,5.78
2023-04-18T18:08:36.642Z,6.40
2023-04-18T18:13:33.244Z,5.97
2023-04-18T18:18:29.731Z,7.35
2023-04-18T18:23:26.107Z,6.78
2023-04-18T18:28:22.447Z,6.63
2023-04-18T18:33:18.961Z,7.75
2023-04-18T18:38:15.398Z,7.93
2023-04-18T18:43:12.602Z,7.15
2023-04-18T18:48:09.956Z,7.50
2023-04-18T18:53:06.740Z,7.35
2023-04-18T18:58:03.129Z,8.77
2023-04-18T19:02:59.557Z,7.93
2023-04-18T19:07:57.112Z,7.63
2023-04-18T19:12:53.533Z,7.93
2023-04-18T19:17:49.913Z,10.00
2023-04-18T19:22:46.256Z,8.15
2023-04-18T19:27:42.742Z,8.18
2023-04-18T19:32:39.206Z,8.02
2023-04-18T19:37:35.925Z,8.93
2023-04-18T19:42:32.306Z,7.63
2023-04-18T19:47:32.134Z,8.00
2023-04-18T19:52:28.635Z,7.25
2023-04-18T19:57:26.213Z,7.47
2023-04-18T20:02:22.645Z,8.23
2023-04-18T20:07:19.327Z,8.07
2023-04-18T20:12:16.092Z,7.90
2023-04-18T20:17:12.408Z,9.00
2023-04-18T20:22:08.796Z,8.73
2023-04-18T20:27:05.145Z,9.23
2023-04-18T20:32:01.482Z,7.75
2023-04-18T20:36:58.680Z,8.40
2023-04-18T20:41:57.690Z,8.07
2023-04-18T20:46:54.304Z,7.22
2023-04-18T20:51:50.670Z,7.30
2023-04-18T20:56:46.995Z,7.95
2023-04-18T21:01:43.443Z,7.78
2023-04-18T21:06:39.836Z,7.68
2023-04-18T21:11:36.246Z,7.55
2023-04-18T21:16:32.737Z,8.05
2023-04-18T21:21:30.234Z,7.45
2023-04-18T21:26:26.795Z,7.50
2023-04-18T21:31:26.083Z,7.63
2023-04-18T21:36:24.052Z,7.80
2023-04-18T21:41:21.002Z,8.88
2023-04-18T21:46:18.126Z,8.35
2023-04-18T21:51:16.059Z,8.07
2023-04-18T21:56:12.507Z,7.43
2023-04-18T22:01:09.498Z,7.93
2023-04-18T22:06:06.107Z,8.23
2023-04-18T22:11:02.516Z,7.05
2023-04-18T22:16:02.119Z,7.40
2023-04-18T22:20:58.511Z,7.57
2023-04-18T22:25:55.310Z,7.70
2023-04-18T22:30:51.773Z,6.55
2023-04-18T22:35:48.537Z,6.72
2023-04-18T22:40:44.863Z,6.28
2023-04-18T22:45:41.348Z,5.75
2023-04-18T22:50:42.410Z,5.40
2023-04-18T22:55:43.222Z,5.28
2023-04-18T23:00:39.633Z,4.68
2023-04-18T23:05:36.019Z,4.35
2023-04-18T23:10:32.736Z,4.50
2023-04-18T23:15:29.109Z,4.25
2023-04-18T23:20:25.513Z,4.10
2023-04-18T23:25:21.922Z,3.42
2023-04-18T23:30:18.395Z,3.30
2023-04-18T23:35:14.738Z,3.97
2023-04-18T23:40:11.158Z,4.30
2023-04-18T23:45:07.954Z,3.10
2023-04-18T23:50:04.749Z,2.88
2023-04-18T23:55:01.670Z,3.28
2023-04-18T23:59:58.095Z,3.22
